TVF59RG LJLJ-LFPO
Flight info
| Callsign | TVF59RG |
|---|---|
| Flight time | 1h 41m |
| Altitude | 37000 |
| Route | MODRO1Z MODRO DCT RIFEN DCT BARPI DCT BADOP DCT AKADO/N0440F380 DCT LAPAB DCT ADOSA DCT PUNSA DCT UNKIR DCT DJL |
| Aircraft | B738/M-SDFGHIJ1RWXY/LB1 |
Departure
| Time | 2026-05-07 18:49 |
|---|---|
| Airport | Ljubljana Jože Pučnik Airport (LJLJ) |
Arrival
| Time | 2026-05-07 20:30 |
|---|---|
| Airport | Paris-Orly Airport (LFPO) |
| Time | Latitude | Longitude | Altitude | Speed | Heading |
|---|---|---|---|---|---|
| 2026-05-07 18:17 | 46.22977 | 14.45511 | 1257 ft | 0 kts | 36° |
| 2026-05-07 18:40 | 46.22963 | 14.45497 | 1262 ft | 4 kts | 30° |
| 2026-05-07 18:40 | 46.22939 | 14.45482 | 1266 ft | 4 kts | 7° |
| 2026-05-07 18:41 | 46.22915 | 14.45486 | 1263 ft | 4 kts | 317° |
| 2026-05-07 18:41 | 46.22911 | 14.45492 | 1268 ft | 0 kts | 308° |
| 2026-05-07 18:43 | 46.22915 | 14.45484 | 1263 ft | 3 kts | 307° |
| 2026-05-07 18:44 | 46.22935 | 14.45438 | 1262 ft | 7 kts | 288° |
| 2026-05-07 18:44 | 46.22909 | 14.45383 | 1266 ft | 7 kts | 217° |
| 2026-05-07 18:44 | 46.22865 | 14.45336 | 1257 ft | 9 kts | 216° |
| 2026-05-07 18:44 | 46.22813 | 14.45354 | 1259 ft | 9 kts | 130° |
| 2026-05-07 18:45 | 46.22767 | 14.45445 | 1260 ft | 14 kts | 127° |
| 2026-05-07 18:45 | 46.22690 | 14.45595 | 1257 ft | 23 kts | 127° |
| 2026-05-07 18:45 | 46.22589 | 14.45793 | 1245 ft | 24 kts | 127° |
| 2026-05-07 18:45 | 46.22485 | 14.45994 | 1247 ft | 24 kts | 126° |
| 2026-05-07 18:46 | 46.22385 | 14.46189 | 1236 ft | 24 kts | 126° |
| 2026-05-07 18:46 | 46.22287 | 14.46380 | 1230 ft | 23 kts | 126° |
| 2026-05-07 18:46 | 46.22184 | 14.46583 | 1222 ft | 26 kts | 127° |
| 2026-05-07 18:46 | 46.22075 | 14.46795 | 1216 ft | 27 kts | 126° |
| 2026-05-07 18:47 | 46.21978 | 14.46986 | 1213 ft | 23 kts | 126° |
| 2026-05-07 18:47 | 46.21883 | 14.47172 | 1211 ft | 22 kts | 127° |
| 2026-05-07 18:47 | 46.21812 | 14.47311 | 1207 ft | 14 kts | 127° |
| 2026-05-07 18:47 | 46.21766 | 14.47394 | 1207 ft | 8 kts | 144° |
| 2026-05-07 18:48 | 46.21709 | 14.47375 | 1205 ft | 9 kts | 215° |
| 2026-05-07 18:48 | 46.21663 | 14.47324 | 1205 ft | 8 kts | 217° |
| 2026-05-07 18:48 | 46.21618 | 14.47275 | 1205 ft | 8 kts | 221° |
| 2026-05-07 18:48 | 46.21627 | 14.47209 | 1207 ft | 10 kts | 306° |
| 2026-05-07 18:49 | 46.21766 | 14.46938 | 1216 ft | 72 kts | 307° |
| 2026-05-07 18:49 | 46.22220 | 14.46051 | 1246 ft | 144 kts | 305° |
| 2026-05-07 18:49 | 46.22819 | 14.44828 | 2002 ft | 149 kts | 302° |
| 2026-05-07 18:49 | 46.23361 | 14.43541 | 2960 ft | 146 kts | 289° |
| 2026-05-07 18:50 | 46.23487 | 14.42087 | 3819 ft | 150 kts | 251° |
| 2026-05-07 18:50 | 46.22820 | 14.40930 | 4709 ft | 157 kts | 217° |
| 2026-05-07 18:50 | 46.21788 | 14.40247 | 5532 ft | 171 kts | 199° |
| 2026-05-07 18:50 | 46.20526 | 14.39926 | 6126 ft | 197 kts | 192° |
| 2026-05-07 18:51 | 46.19058 | 14.39630 | 6334 ft | 231 kts | 191° |
| 2026-05-07 18:51 | 46.17377 | 14.39298 | 6415 ft | 256 kts | 191° |
| 2026-05-07 18:51 | 46.15577 | 14.38931 | 7188 ft | 261 kts | 191° |
| 2026-05-07 18:51 | 46.13768 | 14.38543 | 8243 ft | 265 kts | 191° |
| 2026-05-07 18:52 | 46.11932 | 14.38131 | 9243 ft | 270 kts | 191° |
| 2026-05-07 18:52 | 46.10061 | 14.37710 | 10220 ft | 274 kts | 191° |
| 2026-05-07 18:52 | 46.08167 | 14.37274 | 11177 ft | 277 kts | 194° |
| 2026-05-07 18:52 | 46.06423 | 14.36146 | 12081 ft | 277 kts | 223° |
| 2026-05-07 18:53 | 46.05235 | 14.34006 | 13079 ft | 275 kts | 244° |
| 2026-05-07 18:53 | 46.04478 | 14.31496 | 13956 ft | 280 kts | 250° |
| 2026-05-07 18:53 | 46.03786 | 14.28863 | 14831 ft | 282 kts | 251° |
| 2026-05-07 18:53 | 46.03105 | 14.26198 | 15732 ft | 285 kts | 251° |
| 2026-05-07 18:54 | 46.02417 | 14.23514 | 16658 ft | 286 kts | 251° |
| 2026-05-07 18:54 | 46.01708 | 14.20768 | 17177 ft | 304 kts | 251° |
| 2026-05-07 18:54 | 46.00934 | 14.17793 | 17370 ft | 330 kts | 251° |
| 2026-05-07 18:54 | 46.00094 | 14.14597 | 17584 ft | 352 kts | 251° |
| 2026-05-07 18:55 | 45.99207 | 14.11251 | 18132 ft | 363 kts | 250° |
| 2026-05-07 18:55 | 45.98299 | 14.07845 | 18877 ft | 365 kts | 250° |
| 2026-05-07 18:55 | 45.97401 | 14.04489 | 19717 ft | 364 kts | 250° |
| 2026-05-07 18:55 | 45.96488 | 14.01088 | 20511 ft | 365 kts | 250° |
| 2026-05-07 18:56 | 45.95570 | 13.97671 | 21209 ft | 368 kts | 250° |
| 2026-05-07 18:56 | 45.94642 | 13.94216 | 21800 ft | 374 kts | 250° |
| 2026-05-07 18:56 | 45.93693 | 13.90691 | 22280 ft | 382 kts | 250° |
| 2026-05-07 18:56 | 45.92729 | 13.87114 | 22955 ft | 385 kts | 250° |
| 2026-05-07 18:57 | 45.91909 | 13.83476 | 23677 ft | 383 kts | 260° |
| 2026-05-07 18:57 | 45.91652 | 13.79672 | 24265 ft | 383 kts | 270° |
| 2026-05-07 18:57 | 45.91777 | 13.75905 | 24902 ft | 383 kts | 275° |
| 2026-05-07 18:57 | 45.92092 | 13.72105 | 25504 ft | 384 kts | 277° |
| 2026-05-07 18:58 | 45.92471 | 13.68305 | 26051 ft | 385 kts | 277° |
| 2026-05-07 18:58 | 45.92845 | 13.64490 | 26586 ft | 387 kts | 276° |
| 2026-05-07 18:58 | 45.93206 | 13.60663 | 27131 ft | 387 kts | 276° |
| 2026-05-07 18:58 | 45.93485 | 13.56807 | 27662 ft | 388 kts | 273° |
| 2026-05-07 18:59 | 45.93675 | 13.52935 | 28167 ft | 389 kts | 273° |
| 2026-05-07 18:59 | 45.93852 | 13.49042 | 28608 ft | 392 kts | 272° |
| 2026-05-07 18:59 | 45.94028 | 13.45185 | 29089 ft | 393 kts | 272° |
| 2026-05-07 18:59 | 45.94211 | 13.41258 | 29584 ft | 394 kts | 272° |
| 2026-05-07 19:00 | 45.94398 | 13.37329 | 30060 ft | 394 kts | 272° |
| 2026-05-07 19:00 | 45.94586 | 13.33404 | 30540 ft | 393 kts | 272° |
| 2026-05-07 19:00 | 45.94774 | 13.29495 | 31004 ft | 392 kts | 272° |
| 2026-05-07 19:00 | 45.94961 | 13.25594 | 31421 ft | 392 kts | 272° |
| 2026-05-07 19:01 | 45.95147 | 13.21691 | 31837 ft | 391 kts | 272° |
| 2026-05-07 19:01 | 45.95331 | 13.17790 | 32267 ft | 391 kts | 272° |
| 2026-05-07 19:01 | 45.95511 | 13.13952 | 32705 ft | 390 kts | 272° |
| 2026-05-07 19:01 | 45.95692 | 13.10070 | 33131 ft | 389 kts | 272° |
| 2026-05-07 19:02 | 45.95871 | 13.06191 | 33551 ft | 388 kts | 272° |
| 2026-05-07 19:02 | 45.96048 | 13.02319 | 33953 ft | 388 kts | 272° |
| 2026-05-07 19:02 | 45.96225 | 12.98412 | 34001 ft | 395 kts | 272° |
| 2026-05-07 19:03 | 45.96577 | 12.90554 | 34015 ft | 391 kts | 272° |
| 2026-05-07 19:03 | 45.96919 | 12.82829 | 34023 ft | 386 kts | 272° |
| 2026-05-07 19:04 | 45.97253 | 12.75158 | 34022 ft | 388 kts | 272° |
| 2026-05-07 19:04 | 45.97585 | 12.67410 | 34000 ft | 389 kts | 272° |
| 2026-05-07 19:05 | 45.97915 | 12.59622 | 34280 ft | 392 kts | 272° |
| 2026-05-07 19:05 | 45.98078 | 12.55712 | 34638 ft | 391 kts | 272° |
| 2026-05-07 19:05 | 45.98239 | 12.51817 | 35009 ft | 390 kts | 272° |
| 2026-05-07 19:05 | 45.98396 | 12.47979 | 35339 ft | 390 kts | 272° |
| 2026-05-07 19:06 | 45.98554 | 12.44080 | 35582 ft | 392 kts | 271° |
| 2026-05-07 19:06 | 45.98868 | 12.36241 | 36159 ft | 393 kts | 271° |
| 2026-05-07 19:06 | 45.99023 | 12.32313 | 36429 ft | 394 kts | 271° |
| 2026-05-07 19:07 | 45.99178 | 12.28364 | 36688 ft | 396 kts | 271° |
| 2026-05-07 19:07 | 45.99332 | 12.24415 | 36947 ft | 396 kts | 271° |
| 2026-05-07 19:07 | 45.99485 | 12.20459 | 37265 ft | 396 kts | 271° |
| 2026-05-07 19:07 | 45.99635 | 12.16559 | 37585 ft | 396 kts | 271° |
| 2026-05-07 19:08 | 45.99785 | 12.12601 | 37846 ft | 397 kts | 271° |
| 2026-05-07 19:08 | 45.99935 | 12.08638 | 38034 ft | 397 kts | 271° |
| 2026-05-07 19:08 | 46.00228 | 12.00703 | 38015 ft | 397 kts | 271° |
| 2026-05-07 19:09 | 46.00516 | 11.92760 | 38052 ft | 399 kts | 271° |
| 2026-05-07 19:09 | 46.00800 | 11.84783 | 38048 ft | 400 kts | 270° |
| 2026-05-07 19:10 | 46.01077 | 11.76831 | 37997 ft | 401 kts | 270° |
| 2026-05-07 19:10 | 46.01350 | 11.68852 | 38041 ft | 400 kts | 271° |
| 2026-05-07 19:11 | 46.01619 | 11.60846 | 38043 ft | 402 kts | 270° |
| 2026-05-07 19:11 | 46.01882 | 11.52836 | 38066 ft | 400 kts | 270° |
| 2026-05-07 19:12 | 46.02138 | 11.44864 | 38058 ft | 402 kts | 270° |
| 2026-05-07 19:12 | 46.02391 | 11.36821 | 38051 ft | 402 kts | 270° |
| 2026-05-07 19:13 | 46.02638 | 11.28790 | 38062 ft | 402 kts | 270° |
| 2026-05-07 19:13 | 46.02880 | 11.20762 | 38069 ft | 401 kts | 270° |
| 2026-05-07 19:14 | 46.03116 | 11.12740 | 38085 ft | 401 kts | 270° |
| 2026-05-07 19:14 | 46.03344 | 11.04777 | 38051 ft | 401 kts | 270° |
| 2026-05-07 19:15 | 46.03567 | 10.96767 | 38058 ft | 400 kts | 270° |
| 2026-05-07 19:15 | 46.03783 | 10.88801 | 38079 ft | 397 kts | 270° |
| 2026-05-07 19:16 | 46.03993 | 10.80870 | 38060 ft | 396 kts | 270° |
| 2026-05-07 19:16 | 46.04196 | 10.73017 | 38064 ft | 395 kts | 270° |
| 2026-05-07 19:17 | 46.04394 | 10.65120 | 38063 ft | 394 kts | 270° |
| 2026-05-07 19:17 | 46.04587 | 10.57225 | 38064 ft | 396 kts | 270° |
| 2026-05-07 19:18 | 46.04776 | 10.49291 | 38052 ft | 397 kts | 270° |
| 2026-05-07 19:18 | 46.04958 | 10.41331 | 38044 ft | 398 kts | 270° |
| 2026-05-07 19:19 | 46.05134 | 10.33420 | 38033 ft | 399 kts | 270° |
| 2026-05-07 19:19 | 46.05306 | 10.25454 | 38053 ft | 398 kts | 270° |
| 2026-05-07 19:20 | 46.05475 | 10.17470 | 38035 ft | 399 kts | 270° |
| 2026-05-07 19:20 | 46.05639 | 10.09532 | 38046 ft | 400 kts | 269° |
| 2026-05-07 19:21 | 46.05795 | 10.01516 | 38026 ft | 401 kts | 270° |
| 2026-05-07 19:21 | 46.05947 | 9.93474 | 38035 ft | 402 kts | 270° |
| 2026-05-07 19:22 | 46.06094 | 9.85418 | 38019 ft | 403 kts | 269° |
| 2026-05-07 19:22 | 46.06235 | 9.77356 | 38018 ft | 403 kts | 270° |
| 2026-05-07 19:23 | 46.06367 | 9.69341 | 38023 ft | 403 kts | 269° |
| 2026-05-07 19:23 | 46.06496 | 9.61257 | 38008 ft | 404 kts | 269° |
| 2026-05-07 19:24 | 46.06623 | 9.53152 | 38008 ft | 405 kts | 270° |
| 2026-05-07 19:24 | 46.06742 | 9.45081 | 38012 ft | 405 kts | 269° |
| 2026-05-07 19:25 | 46.06856 | 9.37002 | 38003 ft | 404 kts | 269° |
| 2026-05-07 19:25 | 46.06963 | 9.28932 | 37996 ft | 402 kts | 269° |
| 2026-05-07 19:26 | 46.07064 | 9.20891 | 37999 ft | 400 kts | 269° |
| 2026-05-07 19:26 | 46.07158 | 9.12951 | 37978 ft | 398 kts | 269° |
| 2026-05-07 19:27 | 46.07247 | 9.04999 | 38005 ft | 397 kts | 269° |
| 2026-05-07 19:27 | 46.07330 | 8.97050 | 38002 ft | 397 kts | 269° |
| 2026-05-07 19:28 | 46.07408 | 8.89091 | 37989 ft | 398 kts | 269° |
| 2026-05-07 19:28 | 46.07480 | 8.81121 | 38000 ft | 399 kts | 269° |
| 2026-05-07 19:29 | 46.07546 | 8.73174 | 38000 ft | 400 kts | 269° |
| 2026-05-07 19:29 | 46.07608 | 8.65142 | 37997 ft | 401 kts | 269° |
| 2026-05-07 19:30 | 46.07665 | 8.57088 | 38000 ft | 403 kts | 269° |
| 2026-05-07 19:30 | 46.07716 | 8.49052 | 38011 ft | 404 kts | 269° |
| 2026-05-07 19:31 | 46.07762 | 8.40957 | 38019 ft | 405 kts | 269° |
| 2026-05-07 19:31 | 46.07805 | 8.32826 | 38009 ft | 407 kts | 269° |
| 2026-05-07 19:32 | 46.07837 | 8.24680 | 38030 ft | 407 kts | 269° |
| 2026-05-07 19:32 | 46.07865 | 8.16515 | 37996 ft | 407 kts | 269° |
| 2026-05-07 19:33 | 46.07887 | 8.08452 | 38011 ft | 404 kts | 269° |
| 2026-05-07 19:33 | 46.08774 | 8.00472 | 38032 ft | 405 kts | 284° |
| 2026-05-07 19:34 | 46.11020 | 7.92999 | 38025 ft | 408 kts | 292° |
| 2026-05-07 19:34 | 46.13508 | 7.85666 | 38040 ft | 406 kts | 292° |
| 2026-05-07 19:35 | 46.15954 | 7.78403 | 38021 ft | 407 kts | 292° |
| 2026-05-07 19:35 | 46.18401 | 7.71056 | 38029 ft | 407 kts | 292° |
| 2026-05-07 19:36 | 46.20842 | 7.63678 | 38036 ft | 407 kts | 292° |
| 2026-05-07 19:36 | 46.23277 | 7.56289 | 38018 ft | 409 kts | 292° |
| 2026-05-07 19:37 | 46.25699 | 7.48920 | 38000 ft | 410 kts | 292° |
| 2026-05-07 19:37 | 46.28136 | 7.41485 | 38001 ft | 410 kts | 292° |
| 2026-05-07 19:38 | 46.30576 | 7.34019 | 38005 ft | 411 kts | 292° |
| 2026-05-07 19:38 | 46.33016 | 7.26533 | 37994 ft | 411 kts | 292° |
| 2026-05-07 19:39 | 46.35432 | 7.19102 | 38021 ft | 411 kts | 291° |
| 2026-05-07 19:39 | 46.37860 | 7.11607 | 38009 ft | 411 kts | 291° |
| 2026-05-07 19:40 | 46.40286 | 7.04094 | 38015 ft | 411 kts | 291° |
| 2026-05-07 19:40 | 46.42685 | 6.96649 | 38026 ft | 410 kts | 291° |
| 2026-05-07 19:41 | 46.45095 | 6.89145 | 38020 ft | 410 kts | 291° |
| 2026-05-07 19:41 | 46.47499 | 6.81639 | 38014 ft | 410 kts | 291° |
| 2026-05-07 19:42 | 46.49896 | 6.74131 | 38019 ft | 410 kts | 291° |
| 2026-05-07 19:42 | 46.52289 | 6.66615 | 38020 ft | 410 kts | 291° |
| 2026-05-07 19:43 | 46.54660 | 6.59146 | 38029 ft | 410 kts | 291° |
| 2026-05-07 19:43 | 46.57044 | 6.51614 | 38025 ft | 410 kts | 291° |
| 2026-05-07 19:44 | 46.59421 | 6.44082 | 38033 ft | 410 kts | 291° |
| 2026-05-07 19:44 | 46.61794 | 6.36542 | 38035 ft | 410 kts | 291° |
| 2026-05-07 19:45 | 46.64147 | 6.29041 | 38048 ft | 411 kts | 291° |
| 2026-05-07 19:45 | 46.66514 | 6.21474 | 38045 ft | 411 kts | 291° |
| 2026-05-07 19:46 | 46.68880 | 6.13887 | 38045 ft | 412 kts | 291° |
| 2026-05-07 19:46 | 46.71242 | 6.06289 | 38051 ft | 412 kts | 291° |
| 2026-05-07 19:47 | 46.73588 | 5.98723 | 38048 ft | 413 kts | 291° |
| 2026-05-07 19:47 | 46.75949 | 5.91083 | 38049 ft | 414 kts | 291° |
| 2026-05-07 19:48 | 46.78309 | 5.83425 | 38033 ft | 414 kts | 291° |
| 2026-05-07 19:48 | 46.80704 | 5.75784 | 38026 ft | 416 kts | 296° |
| 2026-05-07 19:49 | 46.84178 | 5.68982 | 38035 ft | 423 kts | 312° |
| 2026-05-07 19:49 | 46.88455 | 5.63143 | 38031 ft | 424 kts | 313° |
| 2026-05-07 19:50 | 46.92791 | 5.57299 | 38022 ft | 424 kts | 313° |
| 2026-05-07 19:50 | 46.97022 | 5.51315 | 37929 ft | 422 kts | 307° |
| 2026-05-07 19:51 | 46.98916 | 5.48047 | 37631 ft | 420 kts | 305° |
| 2026-05-07 19:51 | 47.00736 | 5.44724 | 37363 ft | 417 kts | 304° |
| 2026-05-07 19:51 | 47.02529 | 5.41393 | 37098 ft | 415 kts | 304° |
| 2026-05-07 19:51 | 47.04321 | 5.38069 | 36839 ft | 416 kts | 304° |
| 2026-05-07 19:52 | 47.06117 | 5.34757 | 36593 ft | 414 kts | 305° |
| 2026-05-07 19:52 | 47.07875 | 5.31544 | 36372 ft | 403 kts | 305° |
| 2026-05-07 19:52 | 47.09614 | 5.28385 | 36225 ft | 398 kts | 305° |
| 2026-05-07 19:52 | 47.11378 | 5.25176 | 36004 ft | 410 kts | 305° |
| 2026-05-07 19:53 | 47.13192 | 5.21875 | 35757 ft | 420 kts | 305° |
| 2026-05-07 19:53 | 47.15036 | 5.18523 | 35504 ft | 422 kts | 305° |
| 2026-05-07 19:53 | 47.16871 | 5.15192 | 35254 ft | 416 kts | 305° |
| 2026-05-07 19:53 | 47.18677 | 5.11916 | 34998 ft | 408 kts | 305° |
| 2026-05-07 19:54 | 47.20449 | 5.08699 | 34748 ft | 403 kts | 305° |
| 2026-05-07 19:54 | 47.22208 | 5.05495 | 34507 ft | 401 kts | 305° |
| 2026-05-07 19:54 | 47.23956 | 5.02307 | 34278 ft | 399 kts | 305° |
| 2026-05-07 19:54 | 47.25694 | 4.99129 | 34045 ft | 397 kts | 305° |
| 2026-05-07 19:55 | 47.27424 | 4.95965 | 33779 ft | 396 kts | 304° |
| 2026-05-07 19:55 | 47.29121 | 4.92855 | 33522 ft | 394 kts | 305° |
| 2026-05-07 19:55 | 47.30834 | 4.89714 | 33252 ft | 393 kts | 305° |
| 2026-05-07 19:55 | 47.32542 | 4.86579 | 32987 ft | 392 kts | 305° |
| 2026-05-07 19:56 | 47.34244 | 4.83451 | 32721 ft | 391 kts | 305° |
| 2026-05-07 19:56 | 47.35941 | 4.80328 | 32458 ft | 390 kts | 305° |
| 2026-05-07 19:56 | 47.37634 | 4.77210 | 32200 ft | 389 kts | 305° |
| 2026-05-07 19:56 | 47.39319 | 4.74102 | 31939 ft | 388 kts | 305° |
| 2026-05-07 19:57 | 47.41003 | 4.70994 | 31686 ft | 387 kts | 305° |
| 2026-05-07 19:57 | 47.42681 | 4.67893 | 31424 ft | 386 kts | 305° |
| 2026-05-07 19:57 | 47.44356 | 4.64795 | 31181 ft | 385 kts | 305° |
| 2026-05-07 19:57 | 47.46024 | 4.61706 | 30937 ft | 384 kts | 305° |
| 2026-05-07 19:58 | 47.47687 | 4.58621 | 30699 ft | 384 kts | 305° |
| 2026-05-07 19:58 | 47.49350 | 4.55534 | 30449 ft | 384 kts | 305° |
| 2026-05-07 19:58 | 47.50987 | 4.52491 | 30217 ft | 383 kts | 305° |
| 2026-05-07 19:58 | 47.52644 | 4.49408 | 29949 ft | 382 kts | 305° |
| 2026-05-07 19:59 | 47.54297 | 4.46329 | 29659 ft | 381 kts | 305° |
| 2026-05-07 19:59 | 47.55934 | 4.43277 | 29293 ft | 376 kts | 305° |
| 2026-05-07 19:59 | 47.57548 | 4.40267 | 28890 ft | 371 kts | 305° |
| 2026-05-07 19:59 | 47.59139 | 4.37295 | 28480 ft | 366 kts | 305° |
| 2026-05-07 20:00 | 47.60712 | 4.34353 | 28060 ft | 362 kts | 305° |
| 2026-05-07 20:00 | 47.62264 | 4.31443 | 27664 ft | 358 kts | 305° |
| 2026-05-07 20:00 | 47.63803 | 4.28557 | 27259 ft | 355 kts | 305° |
| 2026-05-07 20:00 | 47.65330 | 4.25691 | 26849 ft | 353 kts | 306° |
| 2026-05-07 20:01 | 47.66847 | 4.22842 | 26446 ft | 351 kts | 306° |
| 2026-05-07 20:01 | 47.68352 | 4.20010 | 26048 ft | 349 kts | 306° |
| 2026-05-07 20:01 | 47.69850 | 4.17192 | 25654 ft | 347 kts | 305° |
| 2026-05-07 20:01 | 47.71318 | 4.14421 | 25268 ft | 345 kts | 305° |
| 2026-05-07 20:02 | 47.72799 | 4.11624 | 24882 ft | 344 kts | 306° |
| 2026-05-07 20:02 | 47.74276 | 4.08834 | 24499 ft | 343 kts | 306° |
| 2026-05-07 20:02 | 47.75745 | 4.06057 | 24114 ft | 341 kts | 306° |
| 2026-05-07 20:02 | 47.77207 | 4.03282 | 23724 ft | 340 kts | 306° |
| 2026-05-07 20:03 | 47.78668 | 4.00516 | 23282 ft | 340 kts | 306° |
| 2026-05-07 20:03 | 47.80122 | 3.97760 | 22852 ft | 338 kts | 306° |
| 2026-05-07 20:03 | 47.81566 | 3.95023 | 22462 ft | 335 kts | 306° |
| 2026-05-07 20:03 | 47.82999 | 3.92302 | 22073 ft | 333 kts | 306° |
| 2026-05-07 20:04 | 47.83942 | 3.90509 | 21828 ft | 331 kts | 306° |
| 2026-05-07 20:04 | 47.85353 | 3.87825 | 21428 ft | 328 kts | 306° |
| 2026-05-07 20:04 | 47.86753 | 3.85160 | 21055 ft | 326 kts | 306° |
| 2026-05-07 20:04 | 47.88590 | 3.81656 | 20574 ft | 322 kts | 306° |
| 2026-05-07 20:05 | 47.89964 | 3.79032 | 20198 ft | 320 kts | 306° |
| 2026-05-07 20:05 | 47.90889 | 3.77264 | 19951 ft | 319 kts | 306° |
| 2026-05-07 20:05 | 47.92250 | 3.74663 | 19582 ft | 317 kts | 306° |
| 2026-05-07 20:05 | 47.93600 | 3.72077 | 19226 ft | 315 kts | 306° |
| 2026-05-07 20:06 | 47.94944 | 3.69503 | 18867 ft | 314 kts | 306° |
| 2026-05-07 20:06 | 47.96265 | 3.66969 | 18533 ft | 312 kts | 306° |
| 2026-05-07 20:06 | 47.97596 | 3.64413 | 18134 ft | 311 kts | 306° |
| 2026-05-07 20:06 | 47.98920 | 3.61868 | 17732 ft | 310 kts | 306° |
| 2026-05-07 20:07 | 48.00237 | 3.59335 | 17354 ft | 308 kts | 306° |
| 2026-05-07 20:07 | 48.01544 | 3.56819 | 16994 ft | 305 kts | 306° |
| 2026-05-07 20:07 | 48.02841 | 3.54318 | 16639 ft | 305 kts | 306° |
| 2026-05-07 20:07 | 48.04144 | 3.51804 | 16286 ft | 307 kts | 306° |
| 2026-05-07 20:08 | 48.05455 | 3.49274 | 15931 ft | 309 kts | 306° |
| 2026-05-07 20:08 | 48.06773 | 3.46725 | 15569 ft | 311 kts | 306° |
| 2026-05-07 20:08 | 48.08093 | 3.44173 | 15204 ft | 309 kts | 306° |
| 2026-05-07 20:08 | 48.09385 | 3.41671 | 14850 ft | 307 kts | 306° |
| 2026-05-07 20:09 | 48.10686 | 3.39150 | 14494 ft | 305 kts | 306° |
| 2026-05-07 20:09 | 48.11979 | 3.36638 | 14134 ft | 304 kts | 306° |
| 2026-05-07 20:09 | 48.13265 | 3.34141 | 13773 ft | 302 kts | 306° |
| 2026-05-07 20:10 | 48.15821 | 3.29176 | 13005 ft | 299 kts | 306° |
| 2026-05-07 20:10 | 48.17088 | 3.26712 | 12645 ft | 297 kts | 306° |
| 2026-05-07 20:10 | 48.18343 | 3.24266 | 12298 ft | 295 kts | 306° |
| 2026-05-07 20:10 | 48.19586 | 3.21843 | 12037 ft | 290 kts | 305° |
| 2026-05-07 20:11 | 48.20844 | 3.19522 | 11767 ft | 286 kts | 310° |
| 2026-05-07 20:11 | 48.22224 | 3.17383 | 11447 ft | 285 kts | 313° |
| 2026-05-07 20:11 | 48.23624 | 3.15289 | 11119 ft | 283 kts | 313° |
| 2026-05-07 20:11 | 48.24992 | 3.13229 | 10798 ft | 282 kts | 312° |
| 2026-05-07 20:12 | 48.26366 | 3.11133 | 10465 ft | 281 kts | 312° |
| 2026-05-07 20:12 | 48.27727 | 3.09040 | 10225 ft | 277 kts | 312° |
| 2026-05-07 20:12 | 48.29063 | 3.06980 | 10111 ft | 275 kts | 312° |
| 2026-05-07 20:12 | 48.30391 | 3.04927 | 10056 ft | 275 kts | 311° |
| 2026-05-07 20:13 | 48.31743 | 3.02834 | 10053 ft | 283 kts | 311° |
| 2026-05-07 20:13 | 48.33124 | 3.00693 | 10049 ft | 287 kts | 312° |
| 2026-05-07 20:13 | 48.34513 | 2.98540 | 10044 ft | 287 kts | 311° |
| 2026-05-07 20:13 | 48.35901 | 2.96388 | 10039 ft | 286 kts | 311° |
| 2026-05-07 20:14 | 48.37285 | 2.94238 | 10034 ft | 286 kts | 311° |
| 2026-05-07 20:14 | 48.38622 | 2.92090 | 10030 ft | 284 kts | 305° |
| 2026-05-07 20:14 | 48.39472 | 2.89463 | 10048 ft | 279 kts | 285° |
| 2026-05-07 20:14 | 48.39986 | 2.86650 | 10039 ft | 279 kts | 282° |
| 2026-05-07 20:15 | 48.40460 | 2.83809 | 10055 ft | 279 kts | 282° |
| 2026-05-07 20:15 | 48.40923 | 2.80971 | 10044 ft | 279 kts | 282° |
| 2026-05-07 20:15 | 48.41380 | 2.78131 | 10043 ft | 279 kts | 282° |
| 2026-05-07 20:15 | 48.41835 | 2.75291 | 10039 ft | 279 kts | 282° |
| 2026-05-07 20:16 | 48.42291 | 2.72444 | 10030 ft | 279 kts | 282° |
| 2026-05-07 20:16 | 48.42745 | 2.69602 | 10031 ft | 279 kts | 282° |
| 2026-05-07 20:16 | 48.43198 | 2.66766 | 10034 ft | 279 kts | 282° |
| 2026-05-07 20:16 | 48.43648 | 2.63949 | 10040 ft | 278 kts | 282° |
| 2026-05-07 20:17 | 48.44098 | 2.61123 | 10018 ft | 276 kts | 282° |
| 2026-05-07 20:17 | 48.44538 | 2.58377 | 9946 ft | 269 kts | 282° |
| 2026-05-07 20:17 | 48.44975 | 2.55662 | 9713 ft | 265 kts | 282° |
| 2026-05-07 20:17 | 48.45409 | 2.52966 | 9404 ft | 265 kts | 282° |
| 2026-05-07 20:18 | 48.45838 | 2.50275 | 9097 ft | 264 kts | 282° |
| 2026-05-07 20:18 | 48.46261 | 2.47587 | 8794 ft | 263 kts | 282° |
| 2026-05-07 20:18 | 48.46677 | 2.44903 | 8515 ft | 262 kts | 282° |
| 2026-05-07 20:18 | 48.47085 | 2.42229 | 8229 ft | 261 kts | 282° |
| 2026-05-07 20:19 | 48.47486 | 2.39563 | 7945 ft | 261 kts | 282° |
| 2026-05-07 20:19 | 48.47880 | 2.36901 | 7678 ft | 260 kts | 282° |
| 2026-05-07 20:19 | 48.48266 | 2.34248 | 7409 ft | 259 kts | 282° |
| 2026-05-07 20:19 | 48.48645 | 2.31598 | 7136 ft | 258 kts | 282° |
| 2026-05-07 20:20 | 48.49017 | 2.28961 | 6823 ft | 257 kts | 282° |
| 2026-05-07 20:20 | 48.49377 | 2.26361 | 6509 ft | 257 kts | 282° |
| 2026-05-07 20:20 | 48.49734 | 2.23729 | 6186 ft | 256 kts | 282° |
| 2026-05-07 20:20 | 48.50071 | 2.21222 | 5868 ft | 256 kts | 282° |
| 2026-05-07 20:21 | 48.50362 | 2.19058 | 5601 ft | 255 kts | 282° |
| 2026-05-07 20:21 | 48.50717 | 2.16436 | 5271 ft | 255 kts | 282° |
| 2026-05-07 20:21 | 48.51065 | 2.13882 | 4949 ft | 256 kts | 282° |
| 2026-05-07 20:21 | 48.51390 | 2.11509 | 4646 ft | 256 kts | 282° |
| 2026-05-07 20:22 | 48.51700 | 2.09249 | 4363 ft | 256 kts | 282° |
| 2026-05-07 20:22 | 48.52040 | 2.06784 | 4074 ft | 255 kts | 282° |
| 2026-05-07 20:22 | 48.52392 | 2.04220 | 3999 ft | 245 kts | 282° |
| 2026-05-07 20:22 | 48.52702 | 2.01967 | 3983 ft | 237 kts | 282° |
| 2026-05-07 20:23 | 48.53014 | 1.99685 | 3991 ft | 236 kts | 282° |
| 2026-05-07 20:23 | 48.53353 | 1.97263 | 3996 ft | 236 kts | 285° |
| 2026-05-07 20:23 | 48.54129 | 1.95112 | 3989 ft | 235 kts | 316° |
| 2026-05-07 20:23 | 48.55525 | 1.93925 | 3994 ft | 233 kts | 348° |
| 2026-05-07 20:24 | 48.57112 | 1.94048 | 3994 ft | 230 kts | 21° |
| 2026-05-07 20:24 | 48.58532 | 1.95141 | 4001 ft | 229 kts | 32° |
| 2026-05-07 20:24 | 48.59663 | 1.96798 | 4000 ft | 228 kts | 58° |
| 2026-05-07 20:24 | 48.60458 | 1.98865 | 3999 ft | 228 kts | 61° |
| 2026-05-07 20:25 | 48.61218 | 2.00938 | 3997 ft | 229 kts | 62° |
| 2026-05-07 20:25 | 48.61925 | 2.03066 | 4078 ft | 225 kts | 64° |
| 2026-05-07 20:25 | 48.62647 | 2.05184 | 4019 ft | 229 kts | 63° |
| 2026-05-07 20:25 | 48.63295 | 2.07078 | 3878 ft | 235 kts | 63° |
| 2026-05-07 20:26 | 48.64046 | 2.09263 | 3690 ft | 231 kts | 62° |
| 2026-05-07 20:26 | 48.64772 | 2.11298 | 3604 ft | 218 kts | 62° |
| 2026-05-07 20:26 | 48.65476 | 2.13288 | 3318 ft | 213 kts | 63° |
| 2026-05-07 20:26 | 48.66135 | 2.15230 | 2960 ft | 211 kts | 64° |
| 2026-05-07 20:27 | 48.66786 | 2.17097 | 2710 ft | 196 kts | 62° |
| 2026-05-07 20:27 | 48.67441 | 2.18805 | 2455 ft | 184 kts | 60° |
| 2026-05-07 20:27 | 48.68033 | 2.20439 | 2184 ft | 173 kts | 64° |
| 2026-05-07 20:27 | 48.68515 | 2.21854 | 1954 ft | 165 kts | 63° |
| 2026-05-07 20:28 | 48.69025 | 2.23285 | 1768 ft | 146 kts | 63° |
| 2026-05-07 20:28 | 48.69501 | 2.24573 | 1521 ft | 134 kts | 63° |
| 2026-05-07 20:28 | 48.69924 | 2.25813 | 1275 ft | 134 kts | 63° |
| 2026-05-07 20:28 | 48.70361 | 2.27023 | 1079 ft | 133 kts | 62° |
| 2026-05-07 20:29 | 48.70791 | 2.28270 | 883 ft | 133 kts | 63° |
| 2026-05-07 20:29 | 48.71230 | 2.29495 | 692 ft | 131 kts | 62° |
| 2026-05-07 20:29 | 48.71670 | 2.30736 | 542 ft | 135 kts | 62° |
| 2026-05-07 20:29 | 48.72114 | 2.32004 | 370 ft | 137 kts | 63° |
| 2026-05-07 20:30 | 48.72543 | 2.33233 | 291 ft | 114 kts | 62° |
| 2026-05-07 20:30 | 48.72811 | 2.33991 | 296 ft | 52 kts | 62° |
| 2026-05-07 20:30 | 48.72971 | 2.34455 | 293 ft | 47 kts | 68° |
| 2026-05-07 20:30 | 48.73019 | 2.34851 | 293 ft | 22 kts | 82° |
| 2026-05-07 20:31 | 48.73039 | 2.35064 | 292 ft | 15 kts | 83° |
| 2026-05-07 20:31 | 48.73037 | 2.35147 | 294 ft | 0 kts | 101° |
| 2026-05-07 20:31 | 48.73037 | 2.35153 | 293 ft | 1 kts | 102° |
| 2026-05-07 20:31 | 48.73033 | 2.35174 | 296 ft | 3 kts | 109° |
| 2026-05-07 20:32 | 48.73024 | 2.35202 | 293 ft | 4 kts | 117° |
| 2026-05-07 20:32 | 48.73004 | 2.35246 | 295 ft | 7 kts | 129° |
| 2026-05-07 20:32 | 48.72957 | 2.35298 | 294 ft | 10 kts | 156° |
| 2026-05-07 20:32 | 48.72904 | 2.35363 | 294 ft | 10 kts | 114° |
| 2026-05-07 20:33 | 48.72855 | 2.35432 | 291 ft | 10 kts | 162° |
| 2026-05-07 20:33 | 48.72789 | 2.35459 | 291 ft | 10 kts | 164° |
| 2026-05-07 20:33 | 48.72753 | 2.35541 | 292 ft | 11 kts | 83° |
| 2026-05-07 20:33 | 48.72711 | 2.35619 | 291 ft | 11 kts | 161° |
| 2026-05-07 20:34 | 48.72644 | 2.35650 | 290 ft | 8 kts | 154° |
| 2026-05-07 20:34 | 48.72637 | 2.35685 | 290 ft | 5 kts | 85° |
| 2026-05-07 20:34 | 48.72652 | 2.35738 | 292 ft | 5 kts | 65° |
| 2026-05-07 20:34 | 48.72662 | 2.35769 | 294 ft | 2 kts | 65° |
| 2026-05-07 20:35 | 48.72662 | 2.35770 | 294 ft | 0 kts | 65° |